createdAt,value
2019-03-17T00:01:57.591Z,25.93
2019-03-17T00:04:30.992Z,25.47
2019-03-17T00:06:50.681Z,25.00
2019-03-17T00:09:17.118Z,25.67
2019-03-17T00:11:43.495Z,29.07
2019-03-17T00:14:09.892Z,27.97
2019-03-17T00:16:36.330Z,27.80
2019-03-17T00:19:02.645Z,29.70
2019-03-17T00:21:29.083Z,27.70
2019-03-17T00:23:55.473Z,27.63
2019-03-17T00:26:21.921Z,28.83
2019-03-17T00:28:48.428Z,29.47
2019-03-17T00:31:23.782Z,28.93
2019-03-17T00:33:43.118Z,30.07
2019-03-17T00:36:09.525Z,29.00
2019-03-17T00:38:35.911Z,30.17
2019-03-17T00:41:02.246Z,29.00
2019-03-17T00:43:28.623Z,30.30
2019-03-17T00:45:54.953Z,31.03
2019-03-17T00:48:21.370Z,32.10
2019-03-17T00:50:49.006Z,31.80
2019-03-17T00:53:15.579Z,31.40
2019-03-17T00:55:41.965Z,32.10
2019-03-17T00:58:08.348Z,32.40
2019-03-17T01:00:34.750Z,33.03
2019-03-17T01:03:01.107Z,31.33
2019-03-17T01:05:27.614Z,33.13
2019-03-17T01:07:54.146Z,31.00
2019-03-17T01:10:20.565Z,30.97
2019-03-17T01:12:46.937Z,31.83
2019-03-17T01:15:13.486Z,31.73
2019-03-17T01:17:39.902Z,30.83
2019-03-17T01:20:08.444Z,29.83
2019-03-17T01:22:34.953Z,31.33
2019-03-17T01:25:01.380Z,31.33
2019-03-17T01:27:27.826Z,30.87
2019-03-17T01:29:54.260Z,30.50
2019-03-17T01:32:20.671Z,32.10
2019-03-17T01:34:47.088Z,32.73
2019-03-17T01:37:13.553Z,35.83
2019-03-17T01:39:41.125Z,31.50
2019-03-17T01:42:08.561Z,31.97
2019-03-17T01:44:34.944Z,31.87
2019-03-17T01:47:01.342Z,30.43
2019-03-17T01:49:27.781Z,31.60
2019-03-17T01:51:54.251Z,28.17
2019-03-17T01:54:20.675Z,29.53
2019-03-17T01:56:47.085Z,27.53
2019-03-17T01:59:13.506Z,27.63
2019-03-17T02:01:39.985Z,27.30
2019-03-17T02:04:06.399Z,26.07
2019-03-17T02:06:32.790Z,27.37
2019-03-17T02:08:59.175Z,26.97
2019-03-17T02:11:25.542Z,27.50
2019-03-17T02:13:51.933Z,27.87
2019-03-17T02:16:18.271Z,27.63
2019-03-17T02:18:44.685Z,26.00
2019-03-17T02:21:11.109Z,28.30
2019-03-17T02:23:37.520Z,30.23
2019-03-17T02:26:03.933Z,27.53
2019-03-17T02:28:30.350Z,29.17
2019-03-17T02:30:56.728Z,29.57
2019-03-17T02:33:23.130Z,29.27
2019-03-17T02:35:49.543Z,31.87
2019-03-17T02:38:15.975Z,29.77
2019-03-17T02:40:42.422Z,28.47
2019-03-17T02:43:08.843Z,29.53
2019-03-17T02:45:35.294Z,30.10
2019-03-17T02:48:01.727Z,27.13
2019-03-17T02:50:28.159Z,28.83
2019-03-17T02:52:54.596Z,31.40
2019-03-17T02:55:22.092Z,29.67
2019-03-17T02:57:48.477Z,28.40
2019-03-17T03:00:18.214Z,28.33
2019-03-17T03:02:43.103Z,28.57
2019-03-17T03:05:09.560Z,27.93
2019-03-17T03:07:35.922Z,26.97
2019-03-17T03:10:04.019Z,28.00
2019-03-17T03:12:30.479Z,26.07
2019-03-17T03:14:56.863Z,26.83
2019-03-17T03:17:23.272Z,25.60
2019-03-17T03:19:49.695Z,26.50
2019-03-17T03:22:16.203Z,25.53
2019-03-17T03:24:42.514Z,27.77
2019-03-17T03:27:08.916Z,26.30
2019-03-17T03:29:35.241Z,25.43
2019-03-17T03:32:01.588Z,27.47
2019-03-17T03:34:27.962Z,27.33
2019-03-17T03:36:54.414Z,26.53
2019-03-17T03:39:20.824Z,25.93
2019-03-17T03:41:47.229Z,25.33
2019-03-17T03:44:13.637Z,24.73
2019-03-17T03:46:39.984Z,21.93
2019-03-17T03:49:06.355Z,23.57
2019-03-17T03:51:32.758Z,23.37
2019-03-17T03:53:59.147Z,26.80
2019-03-17T03:56:25.578Z,24.93
2019-03-17T03:58:52.031Z,22.57
2019-03-17T04:01:18.433Z,24.07
2019-03-17T04:03:44.849Z,21.43
2019-03-17T04:06:25.831Z,23.57
2019-03-17T04:08:39.442Z,20.57
2019-03-17T04:11:05.880Z,20.93
2019-03-17T04:13:32.297Z,20.03
2019-03-17T04:15:58.740Z,19.77
2019-03-17T04:18:25.166Z,19.67
2019-03-17T04:20:51.557Z,18.37
2019-03-17T04:23:17.913Z,18.10
2019-03-17T04:25:44.326Z,18.20
2019-03-17T04:28:10.736Z,17.97
2019-03-17T04:30:37.093Z,17.07
2019-03-17T04:33:03.406Z,17.50
2019-03-17T04:35:29.801Z,16.07
2019-03-17T04:37:56.235Z,17.23
2019-03-17T04:40:22.682Z,16.40
2019-03-17T04:42:49.077Z,15.20
2019-03-17T04:45:15.472Z,14.90
2019-03-17T04:47:41.875Z,14.67
2019-03-17T04:50:08.359Z,15.13
2019-03-17T04:52:34.740Z,14.67
2019-03-17T04:55:01.209Z,13.97
2019-03-17T04:57:28.736Z,14.73
2019-03-17T04:59:55.264Z,13.03
2019-03-17T05:02:21.597Z,13.00
2019-03-17T05:04:47.982Z,14.73
2019-03-17T05:07:14.420Z,12.50
2019-03-17T05:09:40.804Z,13.07
2019-03-17T05:12:07.256Z,12.60
2019-03-17T05:14:33.635Z,13.40
2019-03-17T05:17:00.129Z,13.23
2019-03-17T05:19:26.485Z,12.50
2019-03-17T05:21:52.862Z,12.17
2019-03-17T05:24:19.285Z,11.60
2019-03-17T05:26:45.678Z,11.50
2019-03-17T05:29:12.134Z,11.40
2019-03-17T05:31:38.482Z,10.90
2019-03-17T05:34:04.853Z,9.07
2019-03-17T05:36:31.242Z,10.17
2019-03-17T05:38:57.622Z,10.37
2019-03-17T05:41:24.026Z,9.60
2019-03-17T05:43:50.419Z,10.33
2019-03-17T05:46:16.840Z,10.27
2019-03-17T05:48:43.256Z,10.27
2019-03-17T05:51:09.649Z,8.83
2019-03-17T05:53:36.111Z,9.30
2019-03-17T05:56:02.642Z,9.27
2019-03-17T05:58:29.043Z,9.17
2019-03-17T06:00:55.430Z,9.27
2019-03-17T06:03:22.934Z,10.33
2019-03-17T06:05:49.325Z,9.43
2019-03-17T06:08:16.729Z,8.60
2019-03-17T06:10:43.154Z,8.20
2019-03-17T06:13:09.593Z,7.33
2019-03-17T06:15:36.014Z,8.53
2019-03-17T06:18:02.377Z,8.00
2019-03-17T06:20:28.745Z,8.27
2019-03-17T06:22:55.169Z,7.10
2019-03-17T06:25:21.553Z,7.60
2019-03-17T06:27:48.086Z,8.13
2019-03-17T06:30:15.143Z,8.57
2019-03-17T06:32:41.545Z,8.03
2019-03-17T06:35:08.044Z,7.63
2019-03-17T06:37:35.411Z,8.00
2019-03-17T06:40:03.092Z,7.83
2019-03-17T06:42:29.517Z,6.80
2019-03-17T06:44:55.888Z,6.93
2019-03-17T06:47:22.272Z,6.10
2019-03-17T06:49:48.691Z,7.93
2019-03-17T06:52:15.113Z,6.00
2019-03-17T06:54:41.592Z,6.70
2019-03-17T06:57:09.108Z,6.77
2019-03-17T06:59:35.544Z,7.67
2019-03-17T07:02:01.985Z,7.57
2019-03-17T07:04:28.606Z,9.47
2019-03-17T07:06:55.009Z,10.80
2019-03-17T07:09:21.432Z,11.27
2019-03-17T07:11:47.858Z,9.63
2019-03-17T07:14:14.235Z,6.90
2019-03-17T07:16:40.703Z,5.90
2019-03-17T07:19:07.141Z,5.83
2019-03-17T07:21:33.569Z,5.50
2019-03-17T07:23:59.948Z,7.97
2019-03-17T07:26:26.312Z,6.07
2019-03-17T07:28:52.640Z,5.03
2019-03-17T07:31:19.024Z,5.73
2019-03-17T07:33:45.437Z,5.10
2019-03-17T07:36:11.869Z,4.30
2019-03-17T07:38:38.253Z,4.23
2019-03-17T07:41:04.836Z,5.00
2019-03-17T07:43:31.294Z,4.40
2019-03-17T07:45:57.868Z,4.50
2019-03-17T07:48:24.286Z,4.00
2019-03-17T07:50:51.025Z,4.40
2019-03-17T07:53:17.905Z,4.10
2019-03-17T07:55:44.407Z,4.10
2019-03-17T07:58:10.890Z,3.30
2019-03-17T08:00:37.321Z,4.50
2019-03-17T08:03:03.724Z,4.23
2019-03-17T08:05:30.094Z,4.70
2019-03-17T08:08:08.238Z,4.23
2019-03-17T08:10:24.805Z,4.60
2019-03-17T08:12:51.275Z,4.77
2019-03-17T08:15:17.742Z,4.17
2019-03-17T08:17:44.490Z,4.10
2019-03-17T08:20:11.674Z,3.80
2019-03-17T08:22:39.328Z,3.80
2019-03-17T08:25:07.694Z,3.50
2019-03-17T08:27:34.096Z,3.67
2019-03-17T08:30:00.646Z,3.33
2019-03-17T08:32:27.039Z,3.93
2019-03-17T08:34:53.445Z,3.10
2019-03-17T08:37:19.892Z,3.43
2019-03-17T08:39:46.302Z,3.70
2019-03-17T08:42:12.719Z,3.10
2019-03-17T08:44:39.130Z,3.43
2019-03-17T08:47:05.540Z,3.67
2019-03-17T08:49:31.970Z,3.07
2019-03-17T08:51:58.384Z,3.57
2019-03-17T08:54:24.821Z,3.60
2019-03-17T08:56:51.206Z,2.80
2019-03-17T08:59:17.638Z,2.93
2019-03-17T09:01:44.026Z,2.60
2019-03-17T09:04:10.368Z,2.60
2019-03-17T09:06:36.785Z,2.73
2019-03-17T09:09:05.954Z,2.90
2019-03-17T09:11:32.431Z,2.93
2019-03-17T09:13:58.844Z,2.17
2019-03-17T09:16:25.286Z,2.43
2019-03-17T09:18:51.689Z,2.80
2019-03-17T09:21:18.081Z,2.43
2019-03-17T09:23:44.535Z,2.67
2019-03-17T09:26:10.978Z,2.50
2019-03-17T09:28:37.404Z,2.90
2019-03-17T09:31:07.151Z,2.80
2019-03-17T09:33:32.103Z,3.43
2019-03-17T09:35:58.467Z,3.77
2019-03-17T09:38:24.864Z,3.30
2019-03-17T09:40:51.535Z,3.57
2019-03-17T09:43:18.019Z,3.17
2019-03-17T09:45:44.495Z,2.97
2019-03-17T09:48:11.048Z,3.33
2019-03-17T09:50:37.470Z,4.23
2019-03-17T09:53:05.057Z,3.93
2019-03-17T09:55:31.445Z,3.87
2019-03-17T09:57:58.129Z,3.40
2019-03-17T10:00:24.769Z,3.33
2019-03-17T10:02:51.243Z,3.80
2019-03-17T10:05:17.686Z,3.90
2019-03-17T10:07:44.098Z,3.97
2019-03-17T10:10:20.547Z,2.90
2019-03-17T10:12:47.130Z,3.17
2019-03-17T10:15:15.817Z,3.40
2019-03-17T10:17:42.440Z,3.23
2019-03-17T10:20:14.409Z,3.73
2019-03-17T10:22:40.820Z,4.20
2019-03-17T10:25:09.101Z,3.93
2019-03-17T10:27:35.501Z,3.67
2019-03-17T10:30:04.433Z,3.60
2019-03-17T10:32:30.873Z,4.30
2019-03-17T10:34:57.318Z,4.00
2019-03-17T10:37:23.775Z,3.80
2019-03-17T10:39:50.263Z,3.77
2019-03-17T10:42:16.775Z,3.90
2019-03-17T10:44:43.341Z,4.13
2019-03-17T10:47:09.872Z,3.87
2019-03-17T10:49:36.300Z,4.40
2019-03-17T10:52:03.036Z,3.60
2019-03-17T10:54:29.510Z,3.87
2019-03-17T10:56:55.997Z,4.47
2019-03-17T10:59:22.539Z,4.27
2019-03-17T11:01:48.967Z,4.23
2019-03-17T11:04:15.372Z,3.97
2019-03-17T11:06:41.806Z,3.07
2019-03-17T11:09:08.296Z,2.70
2019-03-17T11:11:34.837Z,2.83
2019-03-17T11:14:01.343Z,2.50
2019-03-17T11:16:27.868Z,2.83
2019-03-17T11:18:54.350Z,3.77
2019-03-17T11:21:20.770Z,2.77
2019-03-17T11:23:47.161Z,3.00
2019-03-17T11:26:13.621Z,2.47
2019-03-17T11:28:40.161Z,2.80
2019-03-17T11:31:06.592Z,2.63
2019-03-17T11:33:33.041Z,2.83
2019-03-17T11:35:59.446Z,3.17
2019-03-17T11:38:25.892Z,2.73
2019-03-17T11:40:52.424Z,2.97
2019-03-17T11:43:20.041Z,3.30
2019-03-17T11:45:46.441Z,3.20
2019-03-17T11:48:12.851Z,3.03
2019-03-17T11:50:39.217Z,2.20
2019-03-17T11:53:05.581Z,2.27
2019-03-17T11:55:32.047Z,2.80
2019-03-17T11:57:58.497Z,2.10
2019-03-17T12:00:24.879Z,2.50
2019-03-17T12:02:51.338Z,2.50
2019-03-17T12:05:17.769Z,2.67
2019-03-17T12:07:44.230Z,1.97
2019-03-17T12:10:17.611Z,2.03
2019-03-17T12:12:44.025Z,2.40
2019-03-17T12:15:13.636Z,2.17
2019-03-17T12:17:39.951Z,2.70
2019-03-17T12:20:09.730Z,2.40
2019-03-17T12:22:36.115Z,2.60
2019-03-17T12:25:03.846Z,2.20
2019-03-17T12:27:30.370Z,3.33
2019-03-17T12:29:56.946Z,2.27
2019-03-17T12:32:23.474Z,3.03
2019-03-17T12:34:49.882Z,2.50
2019-03-17T12:37:16.366Z,2.23
2019-03-17T12:39:42.798Z,2.60
2019-03-17T12:42:09.182Z,2.60
2019-03-17T12:44:35.813Z,3.03
2019-03-17T12:47:02.173Z,2.63
2019-03-17T12:49:28.534Z,2.83
2019-03-17T12:51:54.909Z,2.63
2019-03-17T12:54:21.373Z,2.47
2019-03-17T12:56:47.808Z,3.23
2019-03-17T12:59:14.302Z,3.13
2019-03-17T13:01:41.032Z,2.70
2019-03-17T13:04:07.563Z,2.60
2019-03-17T13:06:35.365Z,3.20
2019-03-17T13:09:03.649Z,3.00
2019-03-17T13:11:30.151Z,2.53
2019-03-17T13:13:56.596Z,2.80
2019-03-17T13:16:23.051Z,2.47
2019-03-17T13:18:49.439Z,2.77
2019-03-17T13:21:16.040Z,2.90
2019-03-17T13:23:42.906Z,2.90
2019-03-17T13:26:10.372Z,2.47
2019-03-17T13:28:37.096Z,2.90
2019-03-17T13:31:04.631Z,2.83
2019-03-17T13:33:31.035Z,2.50
2019-03-17T13:35:57.495Z,2.47
2019-03-17T13:38:23.893Z,2.67
2019-03-17T13:40:50.351Z,2.40
2019-03-17T13:43:16.820Z,2.80
2019-03-17T13:45:43.219Z,3.07
2019-03-17T13:48:09.565Z,2.37
2019-03-17T13:50:36.026Z,2.10
2019-03-17T13:53:02.480Z,2.80
2019-03-17T13:55:28.972Z,2.60
2019-03-17T13:58:04.341Z,2.70
2019-03-17T14:00:30.768Z,2.97
2019-03-17T14:02:57.249Z,3.03
2019-03-17T14:05:23.721Z,2.20
2019-03-17T14:07:50.300Z,2.70
2019-03-17T14:10:17.463Z,2.47
2019-03-17T14:12:44.998Z,2.53
2019-03-17T14:15:12.864Z,3.83
2019-03-17T14:17:39.303Z,2.80
2019-03-17T14:20:09.218Z,3.23
2019-03-17T14:22:35.790Z,2.90
2019-03-17T14:25:04.985Z,3.00
2019-03-17T14:27:31.443Z,2.70
2019-03-17T14:29:57.859Z,2.60
2019-03-17T14:32:24.300Z,3.17
2019-03-17T14:34:50.652Z,2.40
2019-03-17T14:37:17.152Z,2.30
2019-03-17T14:39:43.557Z,2.87
2019-03-17T14:42:09.953Z,2.40
2019-03-17T14:44:36.299Z,2.43
2019-03-17T14:47:02.730Z,3.30
2019-03-17T14:49:29.158Z,2.67
2019-03-17T14:51:55.547Z,2.47
2019-03-17T14:54:21.939Z,2.80
2019-03-17T14:56:48.446Z,2.40
2019-03-17T14:59:14.903Z,2.20
2019-03-17T15:01:41.326Z,2.53
2019-03-17T15:04:07.798Z,1.90
2019-03-17T15:06:34.327Z,2.50
2019-03-17T15:09:00.793Z,2.23
2019-03-17T15:11:27.567Z,2.10
2019-03-17T15:13:54.070Z,2.50
2019-03-17T15:16:20.468Z,2.00
2019-03-17T15:18:47.147Z,2.60
2019-03-17T15:21:13.760Z,2.67
2019-03-17T15:23:40.215Z,2.43
2019-03-17T15:26:06.667Z,2.60
2019-03-17T15:28:33.155Z,2.40
2019-03-17T15:31:11.047Z,2.23
2019-03-17T15:33:27.862Z,2.73
2019-03-17T15:35:54.328Z,2.93
2019-03-17T15:38:20.740Z,2.90
2019-03-17T15:40:47.167Z,2.57
2019-03-17T15:43:13.544Z,3.00
2019-03-17T15:45:40.022Z,2.63
2019-03-17T15:48:06.593Z,2.10
2019-03-17T15:50:34.136Z,2.13
2019-03-17T15:53:00.657Z,1.93
2019-03-17T15:55:27.130Z,2.37
2019-03-17T15:57:53.550Z,1.93
2019-03-17T16:00:26.837Z,2.30
2019-03-17T16:02:50.811Z,2.43
2019-03-17T16:05:17.674Z,2.23
2019-03-17T16:07:44.290Z,2.70
2019-03-17T16:10:21.361Z,2.57
2019-03-17T16:12:47.924Z,3.43
2019-03-17T16:15:14.457Z,2.37
2019-03-17T16:17:41.021Z,2.57
2019-03-17T16:20:23.895Z,9.33
2019-03-17T16:22:51.775Z,2.80
2019-03-17T16:25:27.431Z,2.70
2019-03-17T16:27:53.939Z,3.20
2019-03-17T16:30:26.137Z,3.40
2019-03-17T16:32:52.567Z,2.70
2019-03-17T16:35:19.314Z,3.13
2019-03-17T16:37:46.928Z,3.50
2019-03-17T16:40:24.020Z,3.37
2019-03-17T16:42:53.395Z,4.30
2019-03-17T16:45:18.783Z,3.87
2019-03-17T16:47:45.180Z,4.40
2019-03-17T16:50:13.930Z,3.80
2019-03-17T16:52:40.310Z,3.77
2019-03-17T16:55:08.136Z,4.27
2019-03-17T16:57:35.964Z,4.20
2019-03-17T17:00:06.461Z,5.77
2019-03-17T17:02:32.979Z,3.57
2019-03-17T17:04:59.482Z,3.47
2019-03-17T17:07:25.972Z,3.90
2019-03-17T17:09:53.047Z,3.93
2019-03-17T17:12:19.532Z,3.70
2019-03-17T17:14:46.054Z,4.47
2019-03-17T17:17:12.588Z,4.97
2019-03-17T17:19:39.094Z,4.07
2019-03-17T17:22:05.637Z,3.70
2019-03-17T17:24:33.948Z,26.77
2019-03-17T17:27:00.807Z,36.77
2019-03-17T17:29:27.304Z,27.10
2019-03-17T17:31:53.891Z,17.67
2019-03-17T17:34:20.756Z,21.10
2019-03-17T17:36:47.390Z,19.20
2019-03-17T17:39:14.519Z,22.13
2019-03-17T17:41:42.182Z,19.27
2019-03-17T17:44:08.677Z,13.53
2019-03-17T17:46:35.172Z,15.33
2019-03-17T17:49:01.576Z,10.67
2019-03-17T17:51:28.097Z,16.70
2019-03-17T17:53:54.549Z,22.60
2019-03-17T17:56:21.032Z,30.67
2019-03-17T17:58:47.558Z,35.10
2019-03-17T18:01:14.003Z,29.13
2019-03-17T18:03:51.122Z,30.67
2019-03-17T18:06:09.373Z,6.60
2019-03-17T18:08:36.365Z,9.13
2019-03-17T18:11:03.498Z,5.43
2019-03-17T18:13:30.246Z,18.97
2019-03-17T18:15:56.659Z,11.47
2019-03-17T18:18:23.135Z,9.20
2019-03-17T18:20:49.633Z,12.47
2019-03-17T18:23:18.119Z,15.33
2019-03-17T18:25:44.470Z,17.73
2019-03-17T18:28:11.050Z,13.73
2019-03-17T18:30:37.505Z,14.70
2019-03-17T18:33:03.936Z,9.13
2019-03-17T18:35:30.450Z,12.43
2019-03-17T18:37:56.910Z,11.67
2019-03-17T18:40:24.355Z,14.10
2019-03-17T18:42:50.957Z,12.17
2019-03-17T18:45:19.903Z,10.83
2019-03-17T18:47:46.371Z,11.97
2019-03-17T18:50:19.934Z,11.97
2019-03-17T18:52:41.914Z,10.37
2019-03-17T18:55:10.032Z,17.03
2019-03-17T18:57:37.577Z,14.53
2019-03-17T19:00:08.135Z,18.70
2019-03-17T19:02:34.678Z,15.87
2019-03-17T19:05:01.134Z,14.37
2019-03-17T19:07:27.481Z,12.57
2019-03-17T19:09:54.028Z,14.60
2019-03-17T19:12:20.267Z,18.30
2019-03-17T19:14:46.897Z,18.53
2019-03-17T19:17:13.544Z,21.77
2019-03-17T19:19:40.125Z,33.10
2019-03-17T19:22:06.561Z,34.40
2019-03-17T19:24:33.131Z,16.23
2019-03-17T19:26:59.932Z,20.13
2019-03-17T19:29:26.415Z,24.17
2019-03-17T19:31:52.927Z,19.37
2019-03-17T19:34:19.404Z,21.00
2019-03-17T19:36:45.958Z,25.57
2019-03-17T19:39:12.509Z,25.23
2019-03-17T19:41:39.142Z,28.27
2019-03-17T19:44:05.680Z,25.57
2019-03-17T19:46:32.550Z,23.63
2019-03-17T19:48:59.848Z,20.63
2019-03-17T19:51:26.206Z,8.37
2019-03-17T19:53:52.664Z,6.00
2019-03-17T19:56:19.165Z,7.00
2019-03-17T19:58:45.685Z,3.70
2019-03-17T20:01:12.197Z,2.40
2019-03-17T20:03:38.720Z,2.40
2019-03-17T20:06:05.401Z,2.43
2019-03-17T20:08:32.121Z,2.10
2019-03-17T20:10:58.719Z,2.20
2019-03-17T20:13:25.274Z,1.70
2019-03-17T20:15:51.648Z,1.70
2019-03-17T20:18:18.652Z,2.07
2019-03-17T20:20:45.225Z,2.90
2019-03-17T20:23:11.648Z,3.03
2019-03-17T20:25:39.315Z,3.07
2019-03-17T20:28:06.399Z,3.70
2019-03-17T20:30:33.174Z,3.53
2019-03-17T20:32:59.843Z,2.67
2019-03-17T20:35:26.430Z,2.80
2019-03-17T20:37:53.017Z,2.60
2019-03-17T20:40:19.550Z,3.73
2019-03-17T20:42:46.978Z,2.93
2019-03-17T20:45:14.700Z,3.47
2019-03-17T20:47:41.417Z,2.97
2019-03-17T20:50:13.549Z,3.07
2019-03-17T20:52:40.108Z,3.07
2019-03-17T20:55:08.561Z,2.47
2019-03-17T20:57:35.342Z,2.50
2019-03-17T21:00:04.341Z,2.77
2019-03-17T21:02:31.905Z,2.33
2019-03-17T21:04:58.278Z,2.83
2019-03-17T21:07:24.789Z,2.70
2019-03-17T21:09:51.192Z,3.10
2019-03-17T21:12:17.718Z,2.47
2019-03-17T21:14:44.110Z,2.47
2019-03-17T21:17:10.601Z,2.70
2019-03-17T21:19:36.988Z,2.77
2019-03-17T21:22:03.475Z,2.50
2019-03-17T21:24:29.942Z,3.03
2019-03-17T21:26:56.582Z,2.90
2019-03-17T21:29:22.965Z,3.43
2019-03-17T21:31:49.478Z,2.93
2019-03-17T21:34:15.954Z,2.83
2019-03-17T21:36:42.470Z,3.00
2019-03-17T21:39:09.054Z,2.90
2019-03-17T21:41:35.523Z,3.10
2019-03-17T21:44:01.962Z,2.93
2019-03-17T21:46:28.434Z,3.00
2019-03-17T21:48:54.905Z,3.53
2019-03-17T21:51:22.364Z,3.90
2019-03-17T21:53:48.742Z,2.97
2019-03-17T21:56:15.334Z,3.40
2019-03-17T21:58:41.936Z,4.70
2019-03-17T22:01:08.415Z,7.50
2019-03-17T22:03:34.827Z,4.50
2019-03-17T22:06:01.218Z,3.90
2019-03-17T22:08:27.636Z,4.10
2019-03-17T22:10:53.991Z,3.90
2019-03-17T22:13:20.399Z,3.07
2019-03-17T22:15:46.783Z,3.47
2019-03-17T22:18:13.223Z,3.40
2019-03-17T22:20:39.650Z,3.10
2019-03-17T22:23:06.076Z,3.47
2019-03-17T22:25:32.629Z,3.50
2019-03-17T22:28:08.411Z,4.40
2019-03-17T22:30:27.194Z,4.13
2019-03-17T22:32:53.618Z,4.80
2019-03-17T22:35:19.994Z,5.03
2019-03-17T22:37:46.529Z,6.27
2019-03-17T22:40:16.675Z,4.90
2019-03-17T22:42:43.153Z,3.53
2019-03-17T22:45:15.621Z,3.70
2019-03-17T22:47:42.053Z,4.80
2019-03-17T22:50:10.989Z,4.17
2019-03-17T22:52:37.356Z,3.47
2019-03-17T22:55:05.498Z,3.83
2019-03-17T22:57:31.931Z,4.33
2019-03-17T22:59:58.280Z,5.33
2019-03-17T23:02:24.675Z,3.93
2019-03-17T23:04:51.026Z,4.40
2019-03-17T23:07:17.398Z,4.30
2019-03-17T23:09:43.820Z,4.30
2019-03-17T23:12:10.241Z,4.20
2019-03-17T23:14:38.561Z,3.90
2019-03-17T23:17:04.923Z,4.27
2019-03-17T23:19:31.267Z,4.17
2019-03-17T23:21:57.670Z,5.00
2019-03-17T23:24:23.995Z,4.63
2019-03-17T23:26:50.458Z,4.23
2019-03-17T23:29:16.797Z,4.33
2019-03-17T23:31:43.178Z,4.17
2019-03-17T23:34:09.515Z,4.33
2019-03-17T23:36:35.926Z,4.27
2019-03-17T23:39:02.987Z,4.40
2019-03-17T23:41:30.469Z,4.50
2019-03-17T23:43:56.854Z,4.50
2019-03-17T23:46:23.242Z,4.50
2019-03-17T23:48:49.649Z,4.43
2019-03-17T23:51:16.054Z,4.73
2019-03-17T23:53:42.537Z,4.73
2019-03-17T23:56:09.760Z,4.47
2019-03-17T23:58:36.191Z,4.87
